createdAt,value
2023-01-13T00:00:40.166Z,997.22
2023-01-13T00:01:40.102Z,997.31
2023-01-13T00:02:40.121Z,997.30
2023-01-13T00:03:40.114Z,997.36
2023-01-13T00:04:40.109Z,997.42
2023-01-13T00:05:40.056Z,997.43
2023-01-13T00:06:40.071Z,997.43
2023-01-13T00:07:40.054Z,997.47
2023-01-13T00:08:40.029Z,997.40
2023-01-13T00:09:40.014Z,997.44
2023-01-13T00:10:40.004Z,997.42
2023-01-13T00:11:40.026Z,997.48
2023-01-13T00:12:39.989Z,997.43
2023-01-13T00:13:39.971Z,997.42
2023-01-13T00:14:39.955Z,997.50
2023-01-13T00:15:39.970Z,997.42
2023-01-13T00:16:39.941Z,997.42
2023-01-13T00:17:39.973Z,997.33
2023-01-13T00:18:39.915Z,997.31
2023-01-13T00:19:39.908Z,997.30
2023-01-13T00:20:39.904Z,997.30
2023-01-13T00:21:39.885Z,997.25
2023-01-13T00:22:39.872Z,997.33
2023-01-13T00:23:39.891Z,997.28
2023-01-13T00:24:39.853Z,997.21
2023-01-13T00:25:39.845Z,997.25
2023-01-13T00:26:39.829Z,997.28
2023-01-13T00:27:39.833Z,997.35
2023-01-13T00:28:39.829Z,997.25
2023-01-13T00:29:39.828Z,997.22
2023-01-13T00:30:39.793Z,997.20
2023-01-13T00:31:39.776Z,997.34
2023-01-13T00:32:39.765Z,997.27
2023-01-13T00:33:39.766Z,997.33
2023-01-13T00:34:39.769Z,997.39
2023-01-13T00:35:39.744Z,997.31
2023-01-13T00:36:39.732Z,997.40
2023-01-13T00:37:39.719Z,997.36
2023-01-13T00:38:39.699Z,997.40
2023-01-13T00:39:39.727Z,997.45
2023-01-13T00:40:39.678Z,997.38
2023-01-13T00:41:39.670Z,997.29
2023-01-13T00:42:39.664Z,997.30
2023-01-13T00:43:39.650Z,997.36
2023-01-13T00:44:39.658Z,997.38
2023-01-13T00:45:39.632Z,997.32
2023-01-13T00:46:39.652Z,997.41
2023-01-13T00:47:39.606Z,997.29
2023-01-13T00:48:39.614Z,997.39
2023-01-13T00:49:46.666Z,997.45
2023-01-13T00:50:39.577Z,997.40
2023-01-13T00:51:39.637Z,997.50
2023-01-13T00:52:41.923Z,997.53
2023-01-13T00:53:39.542Z,997.50
2023-01-13T00:54:39.549Z,997.38
2023-01-13T00:55:39.519Z,997.42
2023-01-13T00:56:40.981Z,997.51
2023-01-13T00:57:39.490Z,997.45
2023-01-13T00:58:39.495Z,997.44
2023-01-13T00:59:39.505Z,997.36
2023-01-13T01:00:39.488Z,997.35
2023-01-13T01:01:39.671Z,997.63
2023-01-13T01:02:39.496Z,997.46
2023-01-13T01:03:39.458Z,997.43
2023-01-13T01:04:39.440Z,997.47
2023-01-13T01:05:39.414Z,997.48
2023-01-13T01:06:39.439Z,997.47
2023-01-13T01:07:39.415Z,997.43
2023-01-13T01:08:39.369Z,997.56
2023-01-13T01:09:39.373Z,997.61
2023-01-13T01:10:39.390Z,997.59
2023-01-13T01:11:39.385Z,997.59
2023-01-13T01:12:39.344Z,997.56
2023-01-13T01:13:39.359Z,997.46
2023-01-13T01:14:39.311Z,997.55
2023-01-13T01:15:39.300Z,997.55
2023-01-13T01:16:39.335Z,997.59
2023-01-13T01:17:39.285Z,997.66
2023-01-13T01:18:39.273Z,997.70
2023-01-13T01:19:39.262Z,997.61
2023-01-13T01:20:39.250Z,997.58
2023-01-13T01:21:39.263Z,997.62
2023-01-13T01:22:39.261Z,997.64
2023-01-13T01:23:39.233Z,997.54
2023-01-13T01:24:39.216Z,997.50
2023-01-13T01:25:39.210Z,997.54
2023-01-13T01:26:39.187Z,997.54
2023-01-13T01:27:39.186Z,997.48
2023-01-13T01:28:39.184Z,997.47
2023-01-13T01:29:39.155Z,997.48
2023-01-13T01:30:39.142Z,997.52
2023-01-13T01:31:39.236Z,997.41
2023-01-13T01:32:39.144Z,997.43
2023-01-13T01:33:39.113Z,997.45
2023-01-13T01:34:39.127Z,997.48
2023-01-13T01:35:39.090Z,997.52
2023-01-13T01:36:39.083Z,997.52
2023-01-13T01:37:39.075Z,997.57
2023-01-13T01:38:39.053Z,997.52
2023-01-13T01:39:39.073Z,997.59
2023-01-13T01:40:39.033Z,997.64
2023-01-13T01:41:39.023Z,997.56
2023-01-13T01:42:39.013Z,997.62
2023-01-13T01:43:39.023Z,997.63
2023-01-13T01:44:39.015Z,997.72
2023-01-13T01:45:38.995Z,997.66
2023-01-13T01:46:39.081Z,997.74
2023-01-13T01:47:38.964Z,997.66
2023-01-13T01:48:38.953Z,997.67
2023-01-13T01:49:38.944Z,997.82
2023-01-13T01:50:38.934Z,997.67
2023-01-13T01:51:38.943Z,997.79
2023-01-13T01:52:38.910Z,997.67
2023-01-13T01:53:38.894Z,997.76
2023-01-13T01:54:38.889Z,997.73
2023-01-13T01:55:38.879Z,997.77
2023-01-13T01:56:38.865Z,997.70
2023-01-13T01:57:38.894Z,997.66
2023-01-13T01:58:38.854Z,997.68
2023-01-13T01:59:38.837Z,997.66
2023-01-13T02:00:38.859Z,997.64
2023-01-13T02:01:38.962Z,997.66
2023-01-13T02:02:38.837Z,997.70
2023-01-13T02:03:38.822Z,997.75
2023-01-13T02:04:38.777Z,997.76
2023-01-13T02:05:38.779Z,997.77
2023-01-13T02:06:38.760Z,997.88
2023-01-13T02:07:38.774Z,997.94
2023-01-13T02:08:38.735Z,997.95
2023-01-13T02:09:38.729Z,997.88
2023-01-13T02:10:38.715Z,997.93
2023-01-13T02:11:38.705Z,997.99
2023-01-13T02:12:38.691Z,997.96
2023-01-13T02:13:38.704Z,997.88
2023-01-13T02:14:38.693Z,997.86
2023-01-13T02:15:38.655Z,997.87
2023-01-13T02:16:38.707Z,997.90
2023-01-13T02:17:38.641Z,997.90
2023-01-13T02:18:38.673Z,997.89
2023-01-13T02:19:38.623Z,997.87
2023-01-13T02:20:38.613Z,997.89
2023-01-13T02:21:38.601Z,997.82
2023-01-13T02:22:38.587Z,997.88
2023-01-13T02:23:38.576Z,997.88
2023-01-13T02:24:38.583Z,997.87
2023-01-13T02:25:38.557Z,997.90
2023-01-13T02:26:38.560Z,997.91
2023-01-13T02:27:38.532Z,998.11
2023-01-13T02:28:38.515Z,997.85
2023-01-13T02:29:38.528Z,997.70
2023-01-13T02:30:38.500Z,997.72
2023-01-13T02:31:38.532Z,997.76
2023-01-13T02:32:38.479Z,997.61
2023-01-13T02:33:38.465Z,997.71
2023-01-13T02:34:38.483Z,997.82
2023-01-13T02:35:38.446Z,997.80
2023-01-13T02:36:38.436Z,997.71
2023-01-13T02:37:38.419Z,997.73
2023-01-13T02:38:38.410Z,997.67
2023-01-13T02:39:38.423Z,997.72
2023-01-13T02:40:38.388Z,997.69
2023-01-13T02:41:38.376Z,997.75
2023-01-13T02:42:38.401Z,997.62
2023-01-13T02:43:38.361Z,997.70
2023-01-13T02:44:38.354Z,997.80
2023-01-13T02:45:38.363Z,997.77
2023-01-13T02:46:38.328Z,997.72
2023-01-13T02:47:38.341Z,997.73
2023-01-13T02:48:38.304Z,997.65
2023-01-13T02:49:38.296Z,997.63
2023-01-13T02:50:38.289Z,997.70
2023-01-13T02:51:38.297Z,997.65
2023-01-13T02:52:38.280Z,997.75
2023-01-13T02:53:38.255Z,997.62
2023-01-13T02:54:38.241Z,997.58
2023-01-13T02:55:38.230Z,997.52
2023-01-13T02:56:38.247Z,997.48
2023-01-13T02:57:38.207Z,997.52
2023-01-13T02:58:38.207Z,997.50
2023-01-13T02:59:38.195Z,997.51
2023-01-13T03:00:38.185Z,997.46
2023-01-13T03:01:38.292Z,997.59
2023-01-13T03:02:38.234Z,997.53
2023-01-13T03:03:38.152Z,997.58
2023-01-13T03:04:38.142Z,997.57
2023-01-13T03:05:38.132Z,997.59
2023-01-13T03:06:38.128Z,997.53
2023-01-13T03:07:38.132Z,997.50
2023-01-13T03:08:38.107Z,997.46
2023-01-13T03:09:38.123Z,997.52
2023-01-13T03:10:38.087Z,997.58
2023-01-13T03:11:38.079Z,997.42
2023-01-13T03:12:38.081Z,997.49
2023-01-13T03:13:38.056Z,997.51
2023-01-13T03:14:38.040Z,997.45
2023-01-13T03:15:38.031Z,997.45
2023-01-13T03:16:38.042Z,997.43
2023-01-13T03:17:38.030Z,997.45
2023-01-13T03:18:37.998Z,997.46
2023-01-13T03:19:38.017Z,997.38
2023-01-13T03:20:37.971Z,997.40
2023-01-13T03:21:37.962Z,997.38
2023-01-13T03:22:37.954Z,997.48
2023-01-13T03:23:37.951Z,997.40
2023-01-13T03:24:37.935Z,997.50
2023-01-13T03:25:37.941Z,997.51
2023-01-13T03:26:37.903Z,997.42
2023-01-13T03:27:37.913Z,997.45
2023-01-13T03:28:37.886Z,997.40
2023-01-13T03:29:37.892Z,997.50
2023-01-13T03:30:37.907Z,997.64
2023-01-13T03:31:37.854Z,997.56
2023-01-13T03:32:37.863Z,997.63
2023-01-13T03:33:37.833Z,997.61
2023-01-13T03:34:37.838Z,997.53
2023-01-13T03:35:37.863Z,997.65
2023-01-13T03:36:37.802Z,997.50
2023-01-13T03:37:37.790Z,997.60
2023-01-13T03:38:37.785Z,997.59
2023-01-13T03:39:37.763Z,997.49
2023-01-13T03:40:37.760Z,997.61
2023-01-13T03:41:37.777Z,997.53
2023-01-13T03:42:37.734Z,997.43
2023-01-13T03:43:37.732Z,997.55
2023-01-13T03:44:37.713Z,997.45
2023-01-13T03:45:37.744Z,997.51
2023-01-13T03:46:37.692Z,997.47
2023-01-13T03:47:37.692Z,997.42
2023-01-13T03:48:37.674Z,997.49
2023-01-13T03:49:37.663Z,997.49
2023-01-13T03:50:37.671Z,997.48
2023-01-13T03:51:37.643Z,997.45
2023-01-13T03:52:37.632Z,997.50
2023-01-13T03:53:37.626Z,997.47
2023-01-13T03:54:37.604Z,997.58
2023-01-13T03:55:37.628Z,997.56
2023-01-13T03:56:37.593Z,997.56
2023-01-13T03:57:37.581Z,997.55
2023-01-13T03:58:37.565Z,997.55
2023-01-13T03:59:37.569Z,997.55
2023-01-13T04:00:37.546Z,997.70
2023-01-13T04:01:37.647Z,997.68
2023-01-13T04:02:37.524Z,997.63
2023-01-13T04:03:37.559Z,997.59
2023-01-13T04:04:37.521Z,997.66
2023-01-13T04:05:37.512Z,997.63
2023-01-13T04:06:37.496Z,997.57
2023-01-13T04:07:37.476Z,997.54
2023-01-13T04:08:37.456Z,997.68
2023-01-13T04:09:37.468Z,997.45
2023-01-13T04:10:37.433Z,997.53
2023-01-13T04:11:37.431Z,997.45
2023-01-13T04:12:37.436Z,997.48
2023-01-13T04:13:37.406Z,997.47
2023-01-13T04:14:37.385Z,997.41
2023-01-13T04:15:37.441Z,997.44
2023-01-13T04:16:37.794Z,997.33
2023-01-13T04:17:37.363Z,997.43
2023-01-13T04:18:37.370Z,997.31
2023-01-13T04:19:37.337Z,997.35
2023-01-13T04:20:37.325Z,997.32
2023-01-13T04:21:37.348Z,997.40
2023-01-13T04:22:37.305Z,997.23
2023-01-13T04:23:37.305Z,997.38
2023-01-13T04:24:37.307Z,997.35
2023-01-13T04:25:37.289Z,997.36
2023-01-13T04:26:37.269Z,997.46
2023-01-13T04:27:37.264Z,997.42
2023-01-13T04:28:37.256Z,997.40
2023-01-13T04:29:37.236Z,997.48
2023-01-13T04:30:37.294Z,997.51
2023-01-13T04:31:37.213Z,997.53
2023-01-13T04:32:37.198Z,997.49
2023-01-13T04:33:37.207Z,997.54
2023-01-13T04:34:37.189Z,997.45
2023-01-13T04:35:37.173Z,997.50
2023-01-13T04:36:37.156Z,997.45
2023-01-13T04:37:37.138Z,997.41
2023-01-13T04:38:37.129Z,997.50
2023-01-13T04:39:37.139Z,997.42
2023-01-13T04:40:37.110Z,997.40
2023-01-13T04:41:37.106Z,997.37
2023-01-13T04:42:37.086Z,997.40
2023-01-13T04:43:37.083Z,997.38
2023-01-13T04:44:37.089Z,997.33
2023-01-13T04:45:37.070Z,997.36
2023-01-13T04:46:37.081Z,997.36
2023-01-13T04:47:37.039Z,997.25
2023-01-13T04:48:37.033Z,997.28
2023-01-13T04:49:37.011Z,997.20
2023-01-13T04:50:37.025Z,997.26
2023-01-13T04:51:36.988Z,997.24
2023-01-13T04:52:36.990Z,997.21
2023-01-13T04:53:36.979Z,997.18
2023-01-13T04:54:36.978Z,997.15
2023-01-13T04:55:36.955Z,997.23
2023-01-13T04:56:36.964Z,997.07
2023-01-13T04:57:36.939Z,997.20
2023-01-13T04:58:36.918Z,997.08
2023-01-13T04:59:36.921Z,997.09
2023-01-13T05:00:36.898Z,997.14
2023-01-13T05:01:37.036Z,997.11
2023-01-13T05:02:36.873Z,997.10
2023-01-13T05:03:36.865Z,997.16
2023-01-13T05:04:36.879Z,997.11
2023-01-13T05:05:36.862Z,997.15
2023-01-13T05:06:36.859Z,997.19
2023-01-13T05:07:36.829Z,997.24
2023-01-13T05:08:36.811Z,997.11
2023-01-13T05:09:36.800Z,997.07
2023-01-13T05:10:36.792Z,997.05
2023-01-13T05:11:36.800Z,997.11
2023-01-13T05:12:36.773Z,997.12
2023-01-13T05:13:36.768Z,997.10
2023-01-13T05:14:36.774Z,997.08
2023-01-13T05:15:36.876Z,997.04
2023-01-13T05:16:36.749Z,997.05
2023-01-13T05:17:36.716Z,997.02
2023-01-13T05:18:36.702Z,997.11
2023-01-13T05:19:36.691Z,997.08
2023-01-13T05:20:36.691Z,997.04
2023-01-13T05:21:36.690Z,997.10
2023-01-13T05:22:36.658Z,997.12
2023-01-13T05:23:36.654Z,997.11
2023-01-13T05:24:36.640Z,997.03
2023-01-13T05:25:36.643Z,997.14
2023-01-13T05:26:36.620Z,997.02
2023-01-13T05:27:36.639Z,997.10
2023-01-13T05:28:36.606Z,997.05
2023-01-13T05:29:36.589Z,997.03
2023-01-13T05:30:36.571Z,997.06
2023-01-13T05:31:36.696Z,997.10
2023-01-13T05:32:36.581Z,997.16
2023-01-13T05:33:36.548Z,997.02
2023-01-13T05:34:36.533Z,997.07
2023-01-13T05:35:36.521Z,997.01
2023-01-13T05:36:36.523Z,997.01
2023-01-13T05:37:36.535Z,997.03
2023-01-13T05:38:36.491Z,997.05
2023-01-13T05:39:36.489Z,997.09
2023-01-13T05:40:36.475Z,997.07
2023-01-13T05:41:36.460Z,997.02
2023-01-13T05:42:36.445Z,997.05
2023-01-13T05:43:36.465Z,997.02
2023-01-13T05:44:36.429Z,997.07
2023-01-13T05:45:36.439Z,997.02
2023-01-13T05:46:36.470Z,997.07
2023-01-13T05:47:36.401Z,997.08
2023-01-13T05:48:36.714Z,997.09
2023-01-13T05:49:36.577Z,997.05
2023-01-13T05:50:36.359Z,996.94
2023-01-13T05:51:36.403Z,997.02
2023-01-13T05:52:36.412Z,997.02
2023-01-13T05:53:36.397Z,997.03
2023-01-13T05:54:36.321Z,997.20
2023-01-13T05:55:36.311Z,997.21
2023-01-13T05:56:36.303Z,997.07
2023-01-13T05:57:36.294Z,997.11
2023-01-13T05:58:36.288Z,997.24
2023-01-13T05:59:36.295Z,997.22
2023-01-13T06:00:36.253Z,997.13
2023-01-13T06:01:36.317Z,997.16
2023-01-13T06:02:36.265Z,997.13
2023-01-13T06:03:36.235Z,997.11
2023-01-13T06:04:36.278Z,997.11
2023-01-13T06:05:36.209Z,997.10
2023-01-13T06:06:36.215Z,997.11
2023-01-13T06:07:36.191Z,997.18
2023-01-13T06:08:37.488Z,997.21
2023-01-13T06:09:36.172Z,997.23
2023-01-13T06:10:36.181Z,997.20
2023-01-13T06:11:36.145Z,997.31
2023-01-13T06:12:36.125Z,997.26
2023-01-13T06:13:36.145Z,997.29
2023-01-13T06:14:37.252Z,997.22
2023-01-13T06:15:36.136Z,997.24
2023-01-13T06:16:36.231Z,997.32
2023-01-13T06:17:36.097Z,997.15
2023-01-13T06:18:36.064Z,997.11
2023-01-13T06:19:36.062Z,997.28
2023-01-13T06:20:36.043Z,997.28
2023-01-13T06:21:36.063Z,997.35
2023-01-13T06:22:36.040Z,997.44
2023-01-13T06:23:36.033Z,997.58
2023-01-13T06:24:35.998Z,997.48
2023-01-13T06:25:35.996Z,997.44
2023-01-13T06:26:35.987Z,997.33
2023-01-13T06:27:35.996Z,997.42
2023-01-13T06:28:35.965Z,997.53
2023-01-13T06:29:35.954Z,997.49
2023-01-13T06:30:35.944Z,997.53
2023-01-13T06:31:35.998Z,997.58
2023-01-13T06:32:35.917Z,997.52
2023-01-13T06:33:35.905Z,997.40
2023-01-13T06:34:35.903Z,997.60
2023-01-13T06:35:35.902Z,997.49
2023-01-13T06:36:35.989Z,997.57
2023-01-13T06:37:35.901Z,997.53
2023-01-13T06:38:35.881Z,997.64
2023-01-13T06:39:35.901Z,997.50
2023-01-13T06:40:35.841Z,997.61
2023-01-13T06:41:35.823Z,997.44
2023-01-13T06:42:35.839Z,997.59
2023-01-13T06:43:35.821Z,997.59
2023-01-13T06:44:35.798Z,997.62
2023-01-13T06:45:35.778Z,997.52
2023-01-13T06:46:35.807Z,997.69
2023-01-13T06:47:35.756Z,997.74
2023-01-13T06:48:36.021Z,997.59
2023-01-13T06:49:35.740Z,997.65
2023-01-13T06:50:35.739Z,997.63
2023-01-13T06:51:35.717Z,997.52
2023-01-13T06:52:35.707Z,997.61
2023-01-13T06:53:35.689Z,997.54
2023-01-13T06:54:35.711Z,997.55
2023-01-13T06:55:35.675Z,997.58
2023-01-13T06:56:35.665Z,997.56
2023-01-13T06:57:35.649Z,997.60
2023-01-13T06:58:35.637Z,997.57
2023-01-13T06:59:35.664Z,997.55
2023-01-13T07:00:35.672Z,997.56
2023-01-13T07:01:35.731Z,997.59
2023-01-13T07:02:35.698Z,997.59
2023-01-13T07:03:35.585Z,997.57
2023-01-13T07:04:35.591Z,997.55
2023-01-13T07:05:35.580Z,997.57
2023-01-13T07:06:35.547Z,997.60
2023-01-13T07:07:35.548Z,997.56
2023-01-13T07:08:35.540Z,997.51
2023-01-13T07:09:35.543Z,997.56
2023-01-13T07:10:35.528Z,997.59
2023-01-13T07:11:35.519Z,997.52
2023-01-13T07:12:35.499Z,997.62
2023-01-13T07:13:35.709Z,997.56
2023-01-13T07:14:35.523Z,997.76
2023-01-13T07:15:35.469Z,997.57
2023-01-13T07:16:35.486Z,997.48
2023-01-13T07:17:35.459Z,997.69
2023-01-13T07:18:35.425Z,997.51
2023-01-13T07:19:35.410Z,997.55
2023-01-13T07:20:35.408Z,997.59
2023-01-13T07:21:35.407Z,997.53
2023-01-13T07:22:35.391Z,997.56
2023-01-13T07:23:35.390Z,997.62
2023-01-13T07:24:35.361Z,997.50
2023-01-13T07:25:35.360Z,997.57
2023-01-13T07:26:35.337Z,997.53
2023-01-13T07:27:35.330Z,997.60
2023-01-13T07:28:35.358Z,997.54
2023-01-13T07:29:35.331Z,997.57
2023-01-13T07:30:35.301Z,997.55
2023-01-13T07:31:35.327Z,997.60
2023-01-13T07:32:35.285Z,997.48
2023-01-13T07:33:35.305Z,997.58
2023-01-13T07:34:35.285Z,997.63
2023-01-13T07:35:35.251Z,997.67
2023-01-13T07:36:35.240Z,997.74
2023-01-13T07:37:35.222Z,997.71
2023-01-13T07:38:35.214Z,997.71
2023-01-13T07:39:35.244Z,997.76
2023-01-13T07:40:35.216Z,997.80
2023-01-13T07:41:35.199Z,997.80
2023-01-13T07:42:35.177Z,997.83
2023-01-13T07:43:35.175Z,997.79
2023-01-13T07:44:35.154Z,997.78
2023-01-13T07:45:35.230Z,997.75
2023-01-13T07:46:35.350Z,997.79
2023-01-13T07:47:35.125Z,997.71
2023-01-13T07:48:35.116Z,997.88
2023-01-13T07:49:35.118Z,997.81
2023-01-13T07:50:35.093Z,997.91
2023-01-13T07:51:35.092Z,997.83
2023-01-13T07:52:35.092Z,997.88
2023-01-13T07:53:35.060Z,997.96
2023-01-13T07:54:40.665Z,997.83
2023-01-13T07:55:36.032Z,997.90
2023-01-13T07:56:35.020Z,997.99
2023-01-13T07:57:35.010Z,997.86
2023-01-13T07:58:35.010Z,997.98
2023-01-13T07:59:35.004Z,997.83
2023-01-13T08:00:35.008Z,997.86
2023-01-13T08:01:35.100Z,997.85
2023-01-13T08:02:34.965Z,997.80
2023-01-13T08:03:34.948Z,997.86
2023-01-13T08:04:34.948Z,997.90
2023-01-13T08:05:34.934Z,997.76
2023-01-13T08:06:34.942Z,997.95
2023-01-13T08:07:34.924Z,997.89
2023-01-13T08:08:34.899Z,997.93
2023-01-13T08:09:34.908Z,997.88
2023-01-13T08:10:34.890Z,997.90
2023-01-13T08:11:34.904Z,997.96
2023-01-13T08:12:34.861Z,998.00
2023-01-13T08:13:35.073Z,997.90
2023-01-13T08:14:34.909Z,997.96
2023-01-13T08:15:34.825Z,997.88
2023-01-13T08:16:34.862Z,997.95
2023-01-13T08:17:34.822Z,997.99
2023-01-13T08:18:34.804Z,998.04
2023-01-13T08:19:34.786Z,998.02
2023-01-13T08:20:34.775Z,998.06
2023-01-13T08:21:34.783Z,998.04
2023-01-13T08:22:34.754Z,998.05
2023-01-13T08:23:34.739Z,998.01
2023-01-13T08:24:34.740Z,998.10
2023-01-13T08:25:34.733Z,998.02
2023-01-13T08:26:34.724Z,998.05
2023-01-13T08:27:34.734Z,997.92
2023-01-13T08:28:34.684Z,998.01
2023-01-13T08:29:34.689Z,998.00
2023-01-13T08:30:34.695Z,998.01
2023-01-13T08:31:34.646Z,997.97
2023-01-13T08:32:34.646Z,998.00
2023-01-13T08:33:34.782Z,998.04
2023-01-13T08:34:34.629Z,998.02
2023-01-13T08:35:35.208Z,997.85
2023-01-13T08:36:34.642Z,998.03
2023-01-13T08:37:34.584Z,998.10
2023-01-13T08:38:34.599Z,998.14
2023-01-13T08:39:34.563Z,998.34
2023-01-13T08:40:34.564Z,998.19
2023-01-13T08:41:34.545Z,998.21
2023-01-13T08:42:34.563Z,998.07
2023-01-13T08:43:34.529Z,998.15
2023-01-13T08:44:34.527Z,998.19
2023-01-13T08:45:34.503Z,998.08
2023-01-13T08:46:34.576Z,998.11
2023-01-13T08:47:34.497Z,998.13
2023-01-13T08:48:34.467Z,998.11
2023-01-13T08:49:34.461Z,998.11
2023-01-13T08:50:34.461Z,998.16
2023-01-13T08:51:34.454Z,998.21
2023-01-13T08:52:34.455Z,998.10
2023-01-13T08:53:34.435Z,998.12
2023-01-13T08:54:34.415Z,998.04
2023-01-13T08:55:34.397Z,998.10
2023-01-13T08:56:35.677Z,998.17
2023-01-13T08:57:34.376Z,998.17
2023-01-13T08:58:34.472Z,998.28
2023-01-13T08:59:34.488Z,998.23
2023-01-13T09:00:34.349Z,998.13
2023-01-13T09:01:34.486Z,998.17
2023-01-13T09:02:34.326Z,998.28
2023-01-13T09:03:34.318Z,998.20
2023-01-13T09:04:34.395Z,998.26
2023-01-13T09:05:34.289Z,998.23
2023-01-13T09:06:34.288Z,998.32
2023-01-13T09:07:34.288Z,998.40
2023-01-13T09:08:34.258Z,998.13
2023-01-13T09:09:34.268Z,998.07
2023-01-13T09:10:34.248Z,998.20
2023-01-13T09:11:34.218Z,998.19
2023-01-13T09:12:34.221Z,998.57
2023-01-13T09:13:34.199Z,998.15
2023-01-13T09:14:34.242Z,998.24
2023-01-13T09:15:34.258Z,998.30
2023-01-13T09:16:34.176Z,998.22
2023-01-13T09:17:34.158Z,998.19
2023-01-13T09:18:34.158Z,998.23
2023-01-13T09:19:34.151Z,998.22
2023-01-13T09:20:34.150Z,998.29
2023-01-13T09:21:34.118Z,998.20
2023-01-13T09:22:34.133Z,998.28
2023-01-13T09:23:34.165Z,998.15
2023-01-13T09:24:34.106Z,998.47
2023-01-13T09:25:34.100Z,998.26
2023-01-13T09:26:34.068Z,998.44
2023-01-13T09:27:34.047Z,998.47
2023-01-13T09:28:34.049Z,998.22
2023-01-13T09:29:34.036Z,998.42
2023-01-13T09:30:34.066Z,998.44
2023-01-13T09:31:34.031Z,998.45
2023-01-13T09:32:34.015Z,998.56
2023-01-13T09:33:33.994Z,998.29
2023-01-13T09:34:34.034Z,998.61
2023-01-13T09:35:33.970Z,998.33
2023-01-13T09:36:33.986Z,998.45
2023-01-13T09:37:33.959Z,998.65
2023-01-13T09:38:33.949Z,998.54
2023-01-13T09:39:33.945Z,998.47
2023-01-13T09:40:33.925Z,998.50
2023-01-13T09:41:33.950Z,998.50
2023-01-13T09:42:33.898Z,998.50
2023-01-13T09:43:33.888Z,998.45
2023-01-13T09:44:33.883Z,998.49
2023-01-13T09:45:33.859Z,998.49
2023-01-13T09:46:33.905Z,998.48
2023-01-13T09:47:33.840Z,998.58
2023-01-13T09:48:33.834Z,998.55
2023-01-13T09:49:33.822Z,998.45
2023-01-13T09:50:33.827Z,998.61
2023-01-13T09:51:33.833Z,998.52
2023-01-13T09:52:33.818Z,998.54
2023-01-13T09:53:33.772Z,998.46
2023-01-13T09:54:33.775Z,998.58
2023-01-13T09:55:33.764Z,998.54
2023-01-13T09:56:33.755Z,998.48
2023-01-13T09:57:33.733Z,998.41
2023-01-13T09:58:33.750Z,998.37
2023-01-13T09:59:33.719Z,998.38
2023-01-13T10:00:33.709Z,998.49
2023-01-13T10:01:33.767Z,998.44
2023-01-13T10:02:33.723Z,998.37
2023-01-13T10:03:33.704Z,998.42
2023-01-13T10:04:33.746Z,998.42
2023-01-13T10:05:33.645Z,998.56
2023-01-13T10:06:33.651Z,998.48
2023-01-13T10:07:33.623Z,998.47
2023-01-13T10:08:33.633Z,998.43
2023-01-13T10:09:33.602Z,998.47
2023-01-13T10:10:33.636Z,998.50
2023-01-13T10:11:33.593Z,998.61
2023-01-13T10:12:33.576Z,998.53
2023-01-13T10:13:33.783Z,998.56
2023-01-13T10:14:33.582Z,998.60
2023-01-13T10:15:33.544Z,998.45
2023-01-13T10:16:33.536Z,998.53
2023-01-13T10:17:33.520Z,998.50
2023-01-13T10:18:33.515Z,998.53
2023-01-13T10:19:33.513Z,998.60
2023-01-13T10:20:33.507Z,998.57
2023-01-13T10:21:33.484Z,998.60
2023-01-13T10:22:33.490Z,998.55
2023-01-13T10:23:33.456Z,998.69
2023-01-13T10:24:33.436Z,998.56
2023-01-13T10:25:33.428Z,998.55
2023-01-13T10:26:33.475Z,998.59
2023-01-13T10:27:33.426Z,998.57
2023-01-13T10:28:33.440Z,998.51
2023-01-13T10:29:33.386Z,998.62
2023-01-13T10:30:33.374Z,998.58
2023-01-13T10:31:33.405Z,998.60
2023-01-13T10:32:33.353Z,998.56
2023-01-13T10:33:33.342Z,998.56
2023-01-13T10:34:33.354Z,998.64
2023-01-13T10:35:33.321Z,998.72
2023-01-13T10:36:33.312Z,998.61
2023-01-13T10:37:33.296Z,998.52
2023-01-13T10:38:33.346Z,998.66
2023-01-13T10:39:33.275Z,998.75
2023-01-13T10:40:33.257Z,998.70
2023-01-13T10:41:33.266Z,998.59
2023-01-13T10:42:33.247Z,998.61
2023-01-13T10:43:33.254Z,998.69
2023-01-13T10:44:33.225Z,998.57
2023-01-13T10:45:33.208Z,998.69
2023-01-13T10:46:33.228Z,998.74
2023-01-13T10:47:33.188Z,998.67
2023-01-13T10:48:33.219Z,998.67
2023-01-13T10:49:33.183Z,998.72
2023-01-13T10:50:33.147Z,998.58
2023-01-13T10:51:33.145Z,998.82
2023-01-13T10:52:33.158Z,998.67
2023-01-13T10:53:33.117Z,998.66
2023-01-13T10:54:33.155Z,998.61
2023-01-13T10:55:33.116Z,998.61
2023-01-13T10:56:33.094Z,998.70
2023-01-13T10:57:33.132Z,998.61
2023-01-13T10:58:33.064Z,998.85
2023-01-13T10:59:33.071Z,998.76
2023-01-13T11:00:33.039Z,998.63
2023-01-13T11:01:33.137Z,998.74
2023-01-13T11:02:33.043Z,998.62
2023-01-13T11:03:33.015Z,998.71
2023-01-13T11:04:33.054Z,998.50
2023-01-13T11:05:32.998Z,998.60
2023-01-13T11:06:32.970Z,998.85
2023-01-13T11:07:32.958Z,998.66
2023-01-13T11:08:32.946Z,998.63
2023-01-13T11:09:32.981Z,998.64
2023-01-13T11:10:32.933Z,998.72
2023-01-13T11:11:32.918Z,998.75
2023-01-13T11:12:32.924Z,998.65
2023-01-13T11:13:33.173Z,998.59
2023-01-13T11:14:32.947Z,998.71
2023-01-13T11:15:32.903Z,998.71
2023-01-13T11:16:32.930Z,998.57
2023-01-13T11:17:32.855Z,998.62
2023-01-13T11:18:32.851Z,998.80
2023-01-13T11:19:32.822Z,998.98
2023-01-13T11:20:32.818Z,998.66
2023-01-13T11:21:32.804Z,999.10
2023-01-13T11:22:32.801Z,998.66
2023-01-13T11:23:32.817Z,998.64
2023-01-13T11:24:32.769Z,998.76
2023-01-13T11:25:32.761Z,998.69
2023-01-13T11:26:32.757Z,998.83
2023-01-13T11:27:32.744Z,998.75
2023-01-13T11:28:32.723Z,998.69
2023-01-13T11:29:32.742Z,998.73
2023-01-13T11:30:32.703Z,998.68
2023-01-13T11:31:32.749Z,998.83
2023-01-13T11:32:32.677Z,999.09
2023-01-13T11:33:32.679Z,998.87
2023-01-13T11:34:32.673Z,998.98
2023-01-13T11:35:32.649Z,998.92
2023-01-13T11:36:32.646Z,998.84
2023-01-13T11:37:32.645Z,998.90
2023-01-13T11:38:32.615Z,998.75
2023-01-13T11:39:32.617Z,998.94
2023-01-13T11:40:32.592Z,998.98
2023-01-13T11:41:32.741Z,998.97
2023-01-13T11:42:32.583Z,999.02
2023-01-13T11:43:32.675Z,998.90
2023-01-13T11:44:32.546Z,999.04
2023-01-13T11:45:32.542Z,998.89
2023-01-13T11:46:32.638Z,998.84
2023-01-13T11:47:32.587Z,998.83
2023-01-13T11:48:32.502Z,998.91
2023-01-13T11:49:32.494Z,998.85
2023-01-13T11:50:32.481Z,999.02
2023-01-13T11:51:32.500Z,998.91
2023-01-13T11:52:32.464Z,998.88
2023-01-13T11:53:32.453Z,998.88
2023-01-13T11:54:32.441Z,998.92
2023-01-13T11:55:32.438Z,998.81
2023-01-13T11:56:32.445Z,998.93
2023-01-13T11:57:32.419Z,999.01
2023-01-13T11:58:38.759Z,999.15
2023-01-13T11:59:33.389Z,998.93
2023-01-13T12:00:32.384Z,998.93
2023-01-13T12:01:32.407Z,999.17
2023-01-13T12:02:32.455Z,998.99
2023-01-13T12:03:32.412Z,999.00
2023-01-13T12:04:32.339Z,999.05
2023-01-13T12:05:32.333Z,999.08
2023-01-13T12:06:32.318Z,999.14
2023-01-13T12:07:33.140Z,999.28
2023-01-13T12:08:32.314Z,999.23
2023-01-13T12:09:32.287Z,999.28
2023-01-13T12:10:32.274Z,999.28
2023-01-13T12:11:32.255Z,999.28
2023-01-13T12:12:32.296Z,999.36
2023-01-13T12:13:32.242Z,999.48
2023-01-13T12:14:32.221Z,999.34
2023-01-13T12:15:32.220Z,999.34
2023-01-13T12:16:32.243Z,999.27
2023-01-13T12:17:32.200Z,999.63
2023-01-13T12:18:32.229Z,999.33
2023-01-13T12:19:32.175Z,999.23
2023-01-13T12:20:32.158Z,999.28
2023-01-13T12:21:32.154Z,999.27
2023-01-13T12:22:32.147Z,999.26
2023-01-13T12:23:32.162Z,999.33
2023-01-13T12:24:32.126Z,999.27
2023-01-13T12:25:32.116Z,999.28
2023-01-13T12:26:32.117Z,999.23
2023-01-13T12:27:32.094Z,999.23
2023-01-13T12:28:32.150Z,999.29